createdAt,value
2023-05-21T10:45:16.408Z,30.30
2023-05-21T10:46:16.558Z,28.80
2023-05-21T10:47:16.564Z,27.70
2023-05-21T10:48:16.626Z,30.60
2023-05-21T10:49:18.225Z,31.00
2023-05-21T10:50:18.072Z,25.70
2023-05-21T10:51:18.126Z,24.60
2023-05-21T10:52:18.037Z,30.00
2023-05-21T10:53:18.030Z,28.10
2023-05-21T10:54:17.816Z,28.00
2023-05-21T10:55:17.651Z,25.20
2023-05-21T10:56:17.492Z,24.70
2023-05-21T10:57:17.623Z,24.40
2023-05-21T10:58:17.318Z,29.00
2023-05-21T10:59:17.369Z,26.90
2023-05-21T11:00:17.892Z,25.50
2023-05-21T11:01:17.741Z,25.60
2023-05-21T11:02:18.032Z,24.80
2023-05-21T11:03:17.829Z,25.00
2023-05-21T11:04:17.969Z,23.50
2023-05-21T11:05:18.069Z,23.80
2023-05-21T11:06:17.712Z,25.30
2023-05-21T11:07:17.651Z,22.60
2023-05-21T11:08:17.854Z,27.70
2023-05-21T11:09:17.624Z,23.80
2023-05-21T11:10:17.924Z,24.70
2023-05-21T11:11:17.635Z,23.40
2023-05-21T11:12:17.696Z,26.20
2023-05-21T11:13:17.928Z,32.40
2023-05-21T11:14:19.215Z,23.10
2023-05-21T11:15:17.697Z,23.90
2023-05-21T11:16:17.759Z,21.70
2023-05-21T11:17:17.954Z,20.60
2023-05-21T11:18:17.467Z,21.20
2023-05-21T11:19:17.320Z,20.40
2023-05-21T11:20:17.870Z,22.70
2023-05-21T11:21:17.224Z,20.40
2023-05-21T11:22:17.396Z,21.20
2023-05-21T11:23:17.972Z,21.50
2023-05-21T11:24:17.466Z,19.40
2023-05-21T11:25:17.475Z,19.50
2023-05-21T11:26:17.427Z,20.50
2023-05-21T11:27:17.342Z,20.30
2023-05-21T11:28:17.632Z,21.40
2023-05-21T11:29:17.808Z,24.40
2023-05-21T11:30:17.722Z,24.30
2023-05-21T11:31:17.853Z,21.50
2023-05-21T11:32:17.758Z,19.70
2023-05-21T11:33:17.464Z,21.60
2023-05-21T11:34:17.964Z,19.40
2023-05-21T11:35:17.401Z,22.90
2023-05-21T11:36:17.181Z,20.60
2023-05-21T11:37:17.143Z,20.80
2023-05-21T11:38:17.206Z,21.80
2023-05-21T11:39:17.081Z,21.40
2023-05-21T11:40:17.372Z,24.90
2023-05-21T11:41:17.485Z,23.40
2023-05-21T11:42:17.880Z,20.30
2023-05-21T11:43:17.322Z,22.50
2023-05-21T11:44:17.715Z,21.70
2023-05-21T11:45:17.775Z,21.50
2023-05-21T11:46:17.284Z,21.30
2023-05-21T11:47:17.902Z,20.30
2023-05-21T11:48:17.457Z,21.00
2023-05-21T11:49:17.483Z,21.40
2023-05-21T11:50:17.427Z,21.10
2023-05-21T11:51:17.279Z,20.40
2023-05-21T11:52:17.104Z,18.60
2023-05-21T11:53:17.724Z,17.10
2023-05-21T11:54:17.437Z,23.10
2023-05-21T11:55:17.025Z,19.50
2023-05-21T11:56:17.278Z,20.00
2023-05-21T11:57:17.191Z,16.90
2023-05-21T11:58:17.310Z,20.10
2023-05-21T11:59:18.672Z,20.10
2023-05-21T12:00:17.878Z,19.50
2023-05-21T12:01:17.120Z,18.10
2023-05-21T12:02:17.044Z,18.30
2023-05-21T12:03:17.042Z,18.40
2023-05-21T12:04:17.013Z,19.80
2023-05-21T12:05:16.847Z,19.00
2023-05-21T12:06:17.354Z,18.30
2023-05-21T12:07:16.942Z,20.30
2023-05-21T12:08:17.078Z,22.90
2023-05-21T12:09:16.776Z,19.30
2023-05-21T12:10:17.301Z,21.10
2023-05-21T12:11:17.199Z,19.80
2023-05-21T12:12:17.034Z,17.90
2023-05-21T12:13:17.250Z,17.60
2023-05-21T12:14:17.371Z,18.90
2023-05-21T12:15:16.904Z,18.60
2023-05-21T12:16:17.211Z,17.70
2023-05-21T12:17:16.755Z,18.40
2023-05-21T12:18:17.321Z,18.50
2023-05-21T12:19:16.726Z,20.10
2023-05-21T12:20:16.720Z,18.00
2023-05-21T12:21:16.934Z,19.70
2023-05-21T12:22:17.077Z,20.10
2023-05-21T12:23:16.816Z,22.00
2023-05-21T12:24:17.298Z,22.20
2023-05-21T12:25:17.306Z,20.90
2023-05-21T12:26:17.077Z,18.10
2023-05-21T12:27:16.769Z,17.80
2023-05-21T12:28:17.354Z,19.50
2023-05-21T12:29:16.859Z,19.30
2023-05-21T12:30:16.912Z,18.30
2023-05-21T12:31:17.421Z,16.50
2023-05-21T12:32:16.886Z,18.10
2023-05-21T12:33:16.969Z,16.70
2023-05-21T12:34:16.939Z,17.00
2023-05-21T12:35:17.693Z,21.20
2023-05-21T12:36:17.422Z,19.50
2023-05-21T12:37:17.125Z,19.70
2023-05-21T12:38:18.080Z,16.70
2023-05-21T12:39:17.034Z,17.60
2023-05-21T12:40:17.239Z,17.60
2023-05-21T12:41:17.079Z,16.60
2023-05-21T12:42:17.380Z,17.80
2023-05-21T12:43:17.197Z,18.00
2023-05-21T12:44:17.075Z,17.30
2023-05-21T12:45:17.125Z,18.10
2023-05-21T12:46:17.030Z,17.80
2023-05-21T12:47:16.702Z,22.80
2023-05-21T12:48:16.762Z,16.60
2023-05-21T12:49:16.626Z,16.90
2023-05-21T12:50:17.260Z,18.70
2023-05-21T12:51:17.568Z,23.20
2023-05-21T12:52:16.989Z,17.80
2023-05-21T12:53:17.047Z,19.40
2023-05-21T12:54:16.838Z,17.80
2023-05-21T12:55:17.200Z,17.60
2023-05-21T12:56:16.978Z,21.90
2023-05-21T12:57:17.201Z,19.00
2023-05-21T12:58:16.855Z,19.90
2023-05-21T12:59:17.453Z,17.40
2023-05-21T13:00:16.746Z,18.90
2023-05-21T13:01:17.040Z,19.20
2023-05-21T13:02:17.295Z,18.50
2023-05-21T13:03:16.673Z,18.90
2023-05-21T13:04:17.064Z,17.60
2023-05-21T13:05:16.897Z,19.10
2023-05-21T13:06:17.100Z,21.00
2023-05-21T13:07:17.190Z,17.80
2023-05-21T13:08:17.065Z,17.70
2023-05-21T13:09:17.025Z,18.00
2023-05-21T13:10:17.132Z,17.90
2023-05-21T13:11:18.134Z,19.00
2023-05-21T13:12:17.212Z,18.00
2023-05-21T13:13:16.996Z,18.80
2023-05-21T13:14:16.791Z,18.20
2023-05-21T13:15:16.813Z,16.20
2023-05-21T13:16:17.038Z,17.00
2023-05-21T13:17:17.432Z,20.00
2023-05-21T13:18:17.000Z,17.80
2023-05-21T13:19:17.130Z,18.40
2023-05-21T13:20:16.718Z,21.00
2023-05-21T13:21:16.934Z,18.00
2023-05-21T13:22:16.972Z,15.70
2023-05-21T13:23:17.384Z,17.60
2023-05-21T13:24:16.980Z,16.60
2023-05-21T13:25:16.800Z,17.50
2023-05-21T13:26:16.667Z,17.40
2023-05-21T13:27:16.874Z,18.90
2023-05-21T13:28:18.024Z,17.60
2023-05-21T13:29:16.649Z,19.10
2023-05-21T13:30:16.756Z,24.40
2023-05-21T13:31:16.255Z,17.50
2023-05-21T13:32:16.774Z,18.00
2023-05-21T13:33:17.131Z,17.30
2023-05-21T13:34:16.641Z,17.90
2023-05-21T13:35:17.277Z,17.20
2023-05-21T13:36:16.777Z,15.70
2023-05-21T13:37:17.092Z,16.30
2023-05-21T13:38:16.687Z,15.90
2023-05-21T13:39:16.693Z,18.60
2023-05-21T13:40:16.582Z,17.20
2023-05-21T13:41:16.588Z,19.00
2023-05-21T13:42:16.887Z,20.00
2023-05-21T13:43:16.624Z,15.70
2023-05-21T13:44:16.911Z,19.80
2023-05-21T13:45:16.637Z,16.70
2023-05-21T13:46:16.743Z,16.90
2023-05-21T13:47:16.606Z,18.20
2023-05-21T13:48:16.727Z,20.30
2023-05-21T13:49:16.678Z,17.80
2023-05-21T13:50:16.979Z,18.70
2023-05-21T13:51:30.788Z,17.30
2023-05-21T13:52:18.038Z,15.20
2023-05-21T13:53:16.327Z,16.00
2023-05-21T13:54:16.661Z,15.50
2023-05-21T13:55:16.268Z,19.30
2023-05-21T13:56:16.724Z,13.70
2023-05-21T13:57:16.697Z,16.20
2023-05-21T13:58:16.396Z,16.00
2023-05-21T13:59:16.623Z,15.30
2023-05-21T14:00:16.594Z,16.00
2023-05-21T14:01:16.541Z,13.70
2023-05-21T14:02:16.666Z,13.50
2023-05-21T14:03:16.542Z,13.90
2023-05-21T14:04:16.776Z,13.30
2023-05-21T14:05:16.374Z,14.00
2023-05-21T14:06:16.378Z,15.60
2023-05-21T14:07:16.362Z,16.40
2023-05-21T14:08:16.588Z,14.60
2023-05-21T14:09:16.466Z,15.50
2023-05-21T14:10:16.501Z,16.60
2023-05-21T14:11:16.674Z,17.30
2023-05-21T14:12:16.421Z,17.80
2023-05-21T14:13:20.021Z,13.50
2023-05-21T14:14:17.062Z,16.70
2023-05-21T14:15:16.625Z,17.40
2023-05-21T14:16:16.785Z,18.00
2023-05-21T14:17:17.701Z,17.70
2023-05-21T14:18:16.438Z,14.10
2023-05-21T14:19:16.574Z,17.80
2023-05-21T14:20:17.669Z,16.20
2023-05-21T14:21:16.668Z,17.10
2023-05-21T14:22:16.370Z,16.00
2023-05-21T14:23:16.318Z,17.00
2023-05-21T14:24:16.379Z,18.30
2023-05-21T14:25:16.360Z,14.50
2023-05-21T14:26:16.457Z,15.50
2023-05-21T14:27:17.854Z,19.20
2023-05-21T14:28:16.663Z,18.60
2023-05-21T14:29:16.474Z,18.50
2023-05-21T14:30:16.570Z,19.30
2023-05-21T14:31:16.543Z,19.80
2023-05-21T14:32:16.889Z,17.00
2023-05-21T14:33:16.755Z,16.40
2023-05-21T14:34:16.388Z,16.20
2023-05-21T14:35:16.439Z,17.20
2023-05-21T14:36:16.430Z,15.60
2023-05-21T14:37:16.318Z,18.40
2023-05-21T14:38:15.996Z,22.90
2023-05-21T14:39:16.231Z,18.00
2023-05-21T14:40:16.074Z,19.00
2023-05-21T14:41:16.373Z,20.20
2023-05-21T14:42:17.009Z,19.50
2023-05-21T14:43:16.147Z,20.00
2023-05-21T14:44:16.258Z,19.50
2023-05-21T14:45:18.660Z,20.60
2023-05-21T14:46:17.201Z,21.90
2023-05-21T14:47:16.571Z,21.80
2023-05-21T14:48:16.698Z,17.90
2023-05-21T14:49:16.286Z,24.00
2023-05-21T14:50:16.439Z,17.40
2023-05-21T14:51:16.452Z,21.00
2023-05-21T14:52:16.359Z,17.60
2023-05-21T14:53:18.436Z,17.70
2023-05-21T14:54:16.225Z,21.10
2023-05-21T14:55:17.295Z,18.00
2023-05-21T14:56:17.293Z,20.60
2023-05-21T14:57:16.241Z,18.30
2023-05-21T14:58:16.636Z,21.20
2023-05-21T14:59:16.236Z,18.00
2023-05-21T15:00:16.193Z,19.40
2023-05-21T15:01:16.152Z,17.00
2023-05-21T15:02:16.219Z,26.70
2023-05-21T15:03:16.325Z,21.00
2023-05-21T15:04:16.211Z,17.70
2023-05-21T15:05:16.386Z,19.70
2023-05-21T15:06:17.270Z,17.80
2023-05-21T15:07:16.110Z,21.70
2023-05-21T15:08:16.093Z,21.40
2023-05-21T15:09:16.448Z,17.20
2023-05-21T15:10:18.578Z,18.00
2023-05-21T15:11:16.168Z,18.10
2023-05-21T15:12:16.342Z,16.60
2023-05-21T15:13:16.266Z,19.70
2023-05-21T15:14:16.676Z,18.10
2023-05-21T15:15:16.276Z,20.70
2023-05-21T15:16:17.358Z,19.50
2023-05-21T15:17:16.243Z,21.30
2023-05-21T15:18:15.886Z,24.10
2023-05-21T15:19:15.999Z,18.90
2023-05-21T15:20:16.701Z,20.20
2023-05-21T15:21:16.059Z,19.30
2023-05-21T15:22:16.128Z,21.80
2023-05-21T15:23:17.725Z,17.80
2023-05-21T15:24:17.113Z,20.90
2023-05-21T15:25:16.397Z,22.80
2023-05-21T15:26:16.396Z,18.80
2023-05-21T15:27:15.883Z,20.70
2023-05-21T15:28:15.967Z,20.30
2023-05-21T15:29:17.140Z,20.50
2023-05-21T15:30:16.017Z,18.10
2023-05-21T15:31:16.154Z,19.40
2023-05-21T15:32:15.809Z,22.10
2023-05-21T15:33:15.957Z,21.20
2023-05-21T15:34:16.185Z,20.10
2023-05-21T15:35:15.873Z,20.90
2023-05-21T15:36:15.850Z,19.30
2023-05-21T15:37:15.664Z,22.10
2023-05-21T15:38:15.608Z,19.50
2023-05-21T15:39:15.774Z,22.40
2023-05-21T15:40:15.734Z,18.70
2023-05-21T15:41:15.855Z,20.70
2023-05-21T15:42:15.792Z,23.40
2023-05-21T15:43:15.648Z,25.30
2023-05-21T15:44:15.850Z,22.30
2023-05-21T15:45:15.888Z,27.70
2023-05-21T15:46:16.256Z,25.90
2023-05-21T15:47:15.896Z,22.40
2023-05-21T15:48:15.878Z,20.90
2023-05-21T15:49:16.750Z,21.70
2023-05-21T15:50:15.878Z,23.40
2023-05-21T15:51:15.824Z,22.10
2023-05-21T15:52:17.168Z,18.80
2023-05-21T15:53:15.874Z,20.50
2023-05-21T15:54:15.890Z,19.70
2023-05-21T15:55:15.851Z,21.20
2023-05-21T15:56:15.921Z,19.30
2023-05-21T15:57:16.083Z,23.80
2023-05-21T15:58:15.657Z,22.30
2023-05-21T15:59:15.773Z,24.90
2023-05-21T16:00:15.678Z,22.50
2023-05-21T16:01:15.902Z,20.50
2023-05-21T16:02:16.497Z,22.60
2023-05-21T16:03:15.794Z,26.20
2023-05-21T16:04:15.753Z,29.20
2023-05-21T16:05:15.593Z,30.60
2023-05-21T16:06:15.212Z,29.00
2023-05-21T16:07:15.721Z,28.50
2023-05-21T16:08:15.900Z,28.90
2023-05-21T16:09:15.704Z,28.90
2023-05-21T16:10:15.783Z,36.80
2023-05-21T16:11:15.857Z,39.30
2023-05-21T16:12:15.879Z,39.10
2023-05-21T16:13:15.974Z,49.50
2023-05-21T16:14:15.728Z,55.50
2023-05-21T16:15:15.804Z,56.20
2023-05-21T16:16:15.603Z,56.90
2023-05-21T16:17:15.646Z,49.10
2023-05-21T16:18:16.416Z,40.10
2023-05-21T16:19:15.687Z,44.50
2023-05-21T16:20:15.649Z,68.50
2023-05-21T16:21:15.559Z,45.40
2023-05-21T16:22:15.580Z,49.70
2023-05-21T16:23:15.487Z,47.60
2023-05-21T16:24:15.687Z,46.60
2023-05-21T16:25:15.446Z,49.10
2023-05-21T16:26:15.646Z,74.80
2023-05-21T16:27:15.642Z,74.60
2023-05-21T16:28:15.748Z,88.20
2023-05-21T16:29:15.892Z,67.30
2023-05-21T16:30:15.589Z,109.90
2023-05-21T16:31:15.499Z,95.70
2023-05-21T16:32:15.985Z,57.80
2023-05-21T16:33:15.656Z,97.00
2023-05-21T16:34:15.793Z,70.40
2023-05-21T16:35:15.592Z,83.40
2023-05-21T16:36:17.475Z,82.40
2023-05-21T16:37:15.537Z,35.70
2023-05-21T16:38:15.448Z,39.40
2023-05-21T16:39:15.540Z,70.90
2023-05-21T16:40:15.712Z,108.60
2023-05-21T16:41:15.345Z,68.80
2023-05-21T16:42:15.528Z,43.60
2023-05-21T16:43:15.567Z,48.10
2023-05-21T16:44:15.751Z,53.50
2023-05-21T16:45:15.642Z,35.00
2023-05-21T16:46:16.941Z,34.20
2023-05-21T16:47:15.565Z,67.00
2023-05-21T16:48:15.566Z,45.20
2023-05-21T16:49:15.615Z,35.50
2023-05-21T16:50:15.960Z,37.70
2023-05-21T16:51:15.542Z,37.60
2023-05-21T16:52:15.548Z,42.20
2023-05-21T16:53:15.541Z,43.70
2023-05-21T16:54:15.486Z,36.40
2023-05-21T16:55:15.401Z,40.30
2023-05-21T16:56:16.038Z,42.80
2023-05-21T16:57:15.299Z,53.40
2023-05-21T16:58:15.652Z,66.10
2023-05-21T16:59:15.491Z,55.10
2023-05-21T17:00:15.456Z,39.90
2023-05-21T17:01:15.772Z,32.30
2023-05-21T17:02:15.382Z,47.20
2023-05-21T17:03:15.461Z,71.00
2023-05-21T17:04:16.488Z,69.90
2023-05-21T17:05:15.286Z,37.80
2023-05-21T17:06:16.002Z,40.30
2023-05-21T17:07:15.324Z,40.50
2023-05-21T17:08:15.432Z,41.90
2023-05-21T17:09:16.490Z,38.50
2023-05-21T17:10:15.436Z,35.60
2023-05-21T17:11:15.689Z,31.10
2023-05-21T17:12:15.900Z,36.80
2023-05-21T17:13:22.170Z,36.00
2023-05-21T17:14:32.682Z,40.30
2023-05-21T17:15:17.247Z,34.30
2023-05-21T17:16:15.311Z,30.50
2023-05-21T17:17:15.531Z,28.80
2023-05-21T17:18:15.341Z,28.50
2023-05-21T17:19:15.375Z,29.10
2023-05-21T17:20:15.328Z,38.00
2023-05-21T17:21:15.253Z,29.90
2023-05-21T17:22:15.426Z,32.80
2023-05-21T17:23:15.411Z,27.00
2023-05-21T17:24:15.292Z,25.20
2023-05-21T17:25:15.232Z,27.40
2023-05-21T17:26:15.172Z,25.90
2023-05-21T17:27:15.313Z,25.20
2023-05-21T17:28:15.062Z,24.90
2023-05-21T17:29:15.086Z,28.60
2023-05-21T17:30:15.309Z,25.30
2023-05-21T17:31:15.020Z,23.70
2023-05-21T17:32:14.804Z,24.30
2023-05-21T17:33:15.422Z,24.70
2023-05-21T17:34:14.797Z,27.40
2023-05-21T17:35:14.726Z,26.20
2023-05-21T17:36:15.165Z,24.40
2023-05-21T17:37:15.359Z,24.90
2023-05-21T17:38:15.381Z,25.80
2023-05-21T17:39:15.214Z,21.90
2023-05-21T17:40:15.149Z,35.00
2023-05-21T17:41:15.186Z,32.40
2023-05-21T17:42:14.868Z,67.20
2023-05-21T17:43:14.731Z,30.50
2023-05-21T17:44:15.285Z,66.10
2023-05-21T17:45:15.933Z,73.90
2023-05-21T17:46:14.974Z,85.50
2023-05-21T17:47:15.192Z,71.80
2023-05-21T17:48:15.075Z,71.60
2023-05-21T17:49:15.243Z,70.00
2023-05-21T17:50:14.939Z,50.30
2023-05-21T17:51:15.627Z,52.30
2023-05-21T17:52:15.266Z,48.70
2023-05-21T17:53:15.064Z,111.00
2023-05-21T17:54:15.236Z,151.10
2023-05-21T17:55:15.158Z,113.90
2023-05-21T17:56:15.083Z,87.60
2023-05-21T17:57:15.134Z,66.00
2023-05-21T17:58:15.049Z,77.70
2023-05-21T17:59:15.005Z,92.90
2023-05-21T18:00:15.106Z,52.30
2023-05-21T18:01:14.989Z,62.50
2023-05-21T18:02:15.002Z,69.80
2023-05-21T18:03:15.758Z,64.10
2023-05-21T18:04:14.974Z,203.10
2023-05-21T18:05:15.229Z,209.50
2023-05-21T18:06:15.053Z,268.40
2023-05-21T18:07:14.932Z,278.40
2023-05-21T18:08:15.029Z,299.20
2023-05-21T18:09:15.021Z,245.10
2023-05-21T18:10:15.400Z,230.30
2023-05-21T18:11:14.994Z,378.70
2023-05-21T18:12:14.800Z,313.40
2023-05-21T18:13:14.790Z,274.60
2023-05-21T18:14:14.946Z,331.10
2023-05-21T18:15:14.903Z,261.30
2023-05-21T18:16:15.164Z,299.70
2023-05-21T18:17:14.889Z,355.80
2023-05-21T18:18:14.852Z,410.00
2023-05-21T18:19:14.980Z,287.90
2023-05-21T18:20:15.174Z,329.50
2023-05-21T18:21:15.152Z,394.60
2023-05-21T18:22:15.040Z,325.00
2023-05-21T18:23:15.865Z,224.10
2023-05-21T18:24:14.894Z,320.90
2023-05-21T18:25:14.929Z,246.80
2023-05-21T18:26:14.894Z,262.20
2023-05-21T18:27:14.763Z,371.60
2023-05-21T18:28:14.717Z,446.10
2023-05-21T18:29:14.801Z,517.70
2023-05-21T18:30:14.780Z,507.70
2023-05-21T18:31:14.805Z,531.80
2023-05-21T18:32:15.343Z,513.10
2023-05-21T18:33:15.894Z,404.60
2023-05-21T18:34:16.180Z,374.00
2023-05-21T18:35:16.682Z,400.30
2023-05-21T18:36:15.788Z,413.70
2023-05-21T18:37:15.045Z,373.60
2023-05-21T18:38:14.735Z,410.20
2023-05-21T18:39:15.055Z,363.20
2023-05-21T18:40:15.857Z,284.00
2023-05-21T18:41:14.702Z,313.00
2023-05-21T18:42:15.044Z,417.30
2023-05-21T18:43:14.598Z,364.40
2023-05-21T18:44:14.635Z,455.60
2023-05-21T18:45:14.643Z,404.30
2023-05-21T18:46:14.691Z,470.00
2023-05-21T18:47:14.807Z,403.70
2023-05-21T18:48:15.152Z,438.20
2023-05-21T18:49:14.788Z,505.50
2023-05-21T18:50:15.864Z,631.40
2023-05-21T18:51:14.721Z,621.80
2023-05-21T18:52:14.751Z,588.30
2023-05-21T18:53:16.103Z,581.90
2023-05-21T18:54:14.882Z,576.90
2023-05-21T18:55:14.668Z,519.80
2023-05-21T18:56:14.596Z,530.40
2023-05-21T18:57:14.800Z,405.80
2023-05-21T18:58:14.919Z,389.70
2023-05-21T18:59:14.604Z,362.10
2023-05-21T19:00:15.981Z,364.00
2023-05-21T19:01:14.755Z,390.40
2023-05-21T19:02:14.774Z,414.60
2023-05-21T19:03:14.803Z,396.70
2023-05-21T19:04:14.989Z,436.50
2023-05-21T19:05:14.745Z,395.50
2023-05-21T19:06:14.766Z,394.90
2023-05-21T19:07:14.551Z,376.00
2023-05-21T19:08:14.395Z,398.00
2023-05-21T19:09:14.775Z,455.30
2023-05-21T19:10:14.584Z,448.60
2023-05-21T19:11:14.611Z,349.80
2023-05-21T19:12:14.592Z,357.00
2023-05-21T19:13:15.787Z,352.30
2023-05-21T19:14:15.248Z,344.20
2023-05-21T19:15:14.523Z,317.40
2023-05-21T19:16:14.351Z,310.90
2023-05-21T19:17:15.433Z,317.60
2023-05-21T19:18:14.436Z,397.40
2023-05-21T19:19:14.472Z,530.70
2023-05-21T19:20:15.715Z,441.40
2023-05-21T19:21:15.434Z,516.00
2023-05-21T19:22:14.475Z,510.00
2023-05-21T19:23:14.395Z,338.30
2023-05-21T19:24:14.467Z,345.90
2023-05-21T19:25:14.793Z,360.30
2023-05-21T19:26:15.529Z,292.70
2023-05-21T19:27:15.435Z,385.60
2023-05-21T19:28:14.745Z,307.00
2023-05-21T19:29:14.515Z,249.10
2023-05-21T19:30:14.697Z,236.90
2023-05-21T19:31:14.314Z,208.00
2023-05-21T19:32:15.378Z,247.00
2023-05-21T19:33:14.508Z,240.00
2023-05-21T19:34:14.272Z,224.10
2023-05-21T19:35:14.166Z,199.50
2023-05-21T19:36:14.631Z,214.30
2023-05-21T19:37:14.365Z,214.60
2023-05-21T19:38:14.371Z,221.40
2023-05-21T19:39:14.362Z,250.80
2023-05-21T19:40:14.402Z,268.90
2023-05-21T19:41:14.561Z,258.30
2023-05-21T19:42:14.687Z,270.00
2023-05-21T19:43:14.297Z,273.00
2023-05-21T19:44:15.345Z,269.00
2023-05-21T19:45:15.338Z,286.70
2023-05-21T19:46:17.218Z,273.80
2023-05-21T19:47:15.291Z,264.80
2023-05-21T19:48:14.246Z,235.00
2023-05-21T19:49:14.242Z,248.70
2023-05-21T19:50:14.245Z,247.50
2023-05-21T19:51:14.049Z,228.50
2023-05-21T19:52:15.547Z,244.60
2023-05-21T19:53:14.249Z,285.60
2023-05-21T19:54:15.234Z,205.90
2023-05-21T19:55:14.447Z,243.10
2023-05-21T19:56:14.446Z,315.50
2023-05-21T19:57:14.423Z,259.30
2023-05-21T19:58:14.273Z,242.40
2023-05-21T19:59:14.086Z,311.70
2023-05-21T20:00:14.154Z,435.60
2023-05-21T20:01:14.101Z,369.40
2023-05-21T20:02:14.321Z,204.70
2023-05-21T20:03:14.083Z,223.30
2023-05-21T20:04:14.124Z,237.20
2023-05-21T20:05:14.048Z,239.50
2023-05-21T20:06:14.050Z,261.70
2023-05-21T20:07:14.018Z,317.00
2023-05-21T20:08:14.291Z,310.20
2023-05-21T20:09:14.096Z,376.70
2023-05-21T20:10:14.441Z,230.50
2023-05-21T20:11:14.129Z,232.00
2023-05-21T20:12:14.101Z,216.90
2023-05-21T20:13:14.977Z,228.10
2023-05-21T20:14:14.066Z,222.40
2023-05-21T20:15:14.108Z,232.00
2023-05-21T20:16:14.089Z,222.60
2023-05-21T20:17:14.054Z,221.60
2023-05-21T20:18:14.381Z,243.50
2023-05-21T20:19:14.005Z,259.40
2023-05-21T20:20:13.968Z,263.40
2023-05-21T20:21:14.042Z,260.70
2023-05-21T20:22:13.961Z,287.40
2023-05-21T20:23:14.249Z,292.30
2023-05-21T20:24:14.447Z,336.60
2023-05-21T20:25:14.040Z,400.70
2023-05-21T20:26:14.986Z,306.90
2023-05-21T20:27:13.857Z,385.70
2023-05-21T20:28:13.953Z,413.70
2023-05-21T20:29:14.257Z,422.70
2023-05-21T20:30:13.971Z,581.60
2023-05-21T20:31:13.883Z,637.50
2023-05-21T20:32:13.839Z,465.10
2023-05-21T20:33:13.939Z,464.00
2023-05-21T20:34:14.147Z,390.50
2023-05-21T20:35:14.005Z,390.90
2023-05-21T20:36:13.859Z,641.60
2023-05-21T20:37:13.733Z,452.90
2023-05-21T20:38:13.832Z,546.80
2023-05-21T20:39:13.898Z,413.00
2023-05-21T20:40:14.975Z,595.70
2023-05-21T20:41:14.892Z,429.50
2023-05-21T20:42:13.663Z,429.80
2023-05-21T20:43:13.863Z,527.40
2023-05-21T20:44:13.812Z,354.90
2023-05-21T20:45:14.146Z,294.70
2023-05-21T20:46:13.882Z,245.90
2023-05-21T20:47:14.069Z,262.70
2023-05-21T20:48:13.881Z,264.50
2023-05-21T20:49:13.724Z,273.10
2023-05-21T20:50:13.920Z,263.80
2023-05-21T20:51:13.621Z,186.90
2023-05-21T20:52:13.744Z,243.90
2023-05-21T20:53:13.676Z,297.80
2023-05-21T20:54:13.837Z,416.30
2023-05-21T20:55:13.826Z,420.60
2023-05-21T20:56:13.972Z,400.00
2023-05-21T20:57:13.892Z,286.80
2023-05-21T20:58:14.574Z,256.10
2023-05-21T20:59:14.033Z,273.50
2023-05-21T21:00:13.821Z,246.00
2023-05-21T21:01:14.075Z,350.20
2023-05-21T21:02:13.622Z,443.00
2023-05-21T21:03:14.826Z,413.10
2023-05-21T21:04:13.600Z,416.20
2023-05-21T21:05:13.909Z,389.40
2023-05-21T21:06:13.779Z,341.50
2023-05-21T21:07:13.627Z,373.10
2023-05-21T21:08:13.601Z,529.20
2023-05-21T21:09:13.573Z,545.40
2023-05-21T21:10:13.458Z,785.10
2023-05-21T21:11:13.465Z,834.10
2023-05-21T21:12:25.417Z,487.80
2023-05-21T21:13:15.504Z,607.20
2023-05-21T21:14:13.253Z,649.20
2023-05-21T21:15:13.557Z,587.10
2023-05-21T21:16:14.056Z,619.80
2023-05-21T21:17:14.868Z,567.80
2023-05-21T21:18:14.645Z,623.70
2023-05-21T21:19:13.542Z,562.00
2023-05-21T21:20:13.563Z,586.80
2023-05-21T21:21:13.613Z,584.50
2023-05-21T21:22:14.113Z,570.50
2023-05-21T21:23:13.596Z,564.70
2023-05-21T21:24:13.605Z,640.70
2023-05-21T21:25:13.371Z,655.70
2023-05-21T21:26:13.468Z,617.70
2023-05-21T21:27:13.373Z,674.50
2023-05-21T21:28:13.615Z,575.60
2023-05-21T21:29:13.480Z,623.50
2023-05-21T21:30:13.426Z,696.60
2023-05-21T21:31:13.444Z,542.50
2023-05-21T21:32:13.541Z,636.80
2023-05-21T21:33:13.714Z,617.80
2023-05-21T21:34:13.453Z,592.30
2023-05-21T21:35:13.141Z,599.50
2023-05-21T21:36:13.395Z,669.20
2023-05-21T21:37:13.701Z,708.10
2023-05-21T21:38:13.615Z,738.10
2023-05-21T21:39:13.147Z,629.20
2023-05-21T21:40:13.123Z,757.90
2023-05-21T21:41:13.230Z,628.10
2023-05-21T21:42:13.047Z,619.20
2023-05-21T21:43:13.233Z,530.50
2023-05-21T21:44:13.559Z,656.00
2023-05-21T21:45:13.187Z,605.50
2023-05-21T21:46:14.492Z,674.70
2023-05-21T21:47:13.334Z,701.40
2023-05-21T21:48:13.208Z,586.30
2023-05-21T21:49:13.004Z,654.10
2023-05-21T21:50:12.847Z,551.10
2023-05-21T21:51:13.238Z,559.60
2023-05-21T21:52:12.746Z,539.90
2023-05-21T21:53:13.011Z,538.00
2023-05-21T21:54:13.075Z,531.30
2023-05-21T21:55:12.923Z,516.00
2023-05-21T21:56:12.634Z,621.30
2023-05-21T21:57:12.718Z,697.70
2023-05-21T21:58:12.660Z,689.40
2023-05-21T21:59:12.775Z,715.50
2023-05-21T22:00:13.024Z,814.80
2023-05-21T22:01:12.613Z,916.20
2023-05-21T22:02:12.735Z,882.10
2023-05-21T22:03:14.609Z,884.00
2023-05-21T22:04:12.535Z,854.70
2023-05-21T22:05:12.527Z,997.90
2023-05-21T22:06:12.601Z,949.70
2023-05-21T22:07:12.509Z,898.40
2023-05-21T22:08:12.548Z,867.20
2023-05-21T22:09:12.561Z,753.20
2023-05-21T22:10:13.028Z,914.80
2023-05-21T22:11:12.664Z,993.90
2023-05-21T22:12:12.516Z,1012.40
2023-05-21T22:13:12.680Z,991.40
2023-05-21T22:14:12.484Z,975.30
2023-05-21T22:15:12.658Z,1018.80
2023-05-21T22:16:12.721Z,979.10
2023-05-21T22:17:12.613Z,896.70
2023-05-21T22:18:12.590Z,825.50
2023-05-21T22:19:12.485Z,759.70
2023-05-21T22:20:12.521Z,876.10
2023-05-21T22:21:12.584Z,805.00
2023-05-21T22:22:12.700Z,999.00
2023-05-21T22:23:12.526Z,1020.60
2023-05-21T22:24:24.124Z,1016.20
2023-05-21T22:25:14.406Z,1020.50
2023-05-21T22:26:12.804Z,935.50
2023-05-21T22:27:12.525Z,839.60
2023-05-21T22:28:12.476Z,595.30
2023-05-21T22:29:12.477Z,634.60
2023-05-21T22:30:12.380Z,620.70
2023-05-21T22:31:12.437Z,537.00
2023-05-21T22:32:12.520Z,654.70
2023-05-21T22:33:12.447Z,683.20
2023-05-21T22:34:12.596Z,613.80
2023-05-21T22:35:12.270Z,557.60
2023-05-21T22:36:12.272Z,571.40
2023-05-21T22:37:12.294Z,585.70
2023-05-21T22:38:12.240Z,650.60
2023-05-21T22:39:12.255Z,644.80
2023-05-21T22:40:13.082Z,587.80
2023-05-21T22:41:13.309Z,617.90
2023-05-21T22:42:12.273Z,485.10
2023-05-21T22:43:12.250Z,497.00
2023-05-21T22:44:12.316Z,582.10
2023-05-21T22:45:12.262Z,541.30
2023-05-21T22:46:12.654Z,666.50
2023-05-21T22:47:12.256Z,539.80
2023-05-21T22:48:12.437Z,485.60
2023-05-21T22:49:12.255Z,493.70
2023-05-21T22:50:12.203Z,637.40
2023-05-21T22:51:12.213Z,566.00
2023-05-21T22:52:12.269Z,527.90
2023-05-21T22:53:12.274Z,521.50
2023-05-21T22:54:12.227Z,570.30
2023-05-21T22:55:12.209Z,629.10
2023-05-21T22:56:12.255Z,548.70
2023-05-21T22:57:12.515Z,564.30
2023-05-21T22:58:12.247Z,559.50
2023-05-21T22:59:12.210Z,558.90
2023-05-21T23:00:12.182Z,545.30
2023-05-21T23:01:12.186Z,525.40
2023-05-21T23:02:12.305Z,564.80
2023-05-21T23:03:12.215Z,612.00
2023-05-21T23:04:12.144Z,669.10
2023-05-21T23:05:12.251Z,631.70
2023-05-21T23:06:12.207Z,535.90
2023-05-21T23:07:12.172Z,552.50
2023-05-21T23:08:12.381Z,544.20
2023-05-21T23:09:12.076Z,559.90
2023-05-21T23:10:11.983Z,606.70
2023-05-21T23:11:12.000Z,599.60
2023-05-21T23:12:11.982Z,565.30
2023-05-21T23:13:12.077Z,575.70
2023-05-21T23:14:11.986Z,558.50
2023-05-21T23:15:11.935Z,534.40
2023-05-21T23:16:12.098Z,537.60
2023-05-21T23:17:12.023Z,490.30
2023-05-21T23:18:12.071Z,562.90
2023-05-21T23:19:12.150Z,595.30
2023-05-21T23:20:12.008Z,557.40
2023-05-21T23:21:12.267Z,605.80
2023-05-21T23:22:11.953Z,679.70
2023-05-21T23:23:11.988Z,699.80
2023-05-21T23:24:11.998Z,645.20
2023-05-21T23:25:11.967Z,700.70
2023-05-21T23:26:12.014Z,549.40